메인 페이지
METAR-TAF:

METAR-TAF

공항 :

Dutchess County Airport

Poughkeepsie, 뉴욕, 미국

위도: 41-37-36N, 경도: 073-53-03W, 고도: 50m

현재 날씨관측

예보는 19분 전, 03:53시(UTC)에 발표되었습니다.
북서9kt
온도 -3°C
습도 42%
기압 1012 hPa
시정: 16.1km
고도 7000ft 상공 흐림

METAR: KPOU 050353Z AUTO 31009KT 10SM OVC070 M03/M14 A2988 RMK AO2 SLP115 T10331139 TSNO

시각: 23:12 (04:12 UTC)

예보

예보는 2 시간 10분 전, 02:02시(UTC)에 발표되었습니다.
예보 대상 시간: 05일 02시부터 05일 24시까지 (UTC)
서북서10kt, 순간 최대 풍속 16kt
시정: 10km
고도 7000ft 상공 구름 보통
05일 1400시부터 (UTC)
서북서14kt, 순간 최대 풍속 24kt
시정: 10km
맑음
05일 2200시부터 (UTC)
서북서10kt, 순간 최대 풍속 18kt
시정: 10km
맑음

TAF: KPOU 050202Z 0502/0524 30010G16KT P6SM SCT070 FM051400 29014G24KT P6SM SKC FM052200 29010G18KT P6SM SKC

4,000개 이상의 공항 관측 자료 및 예보 (METAR 및 TAF 보고).

지도상에서 검색 가능한 기상관측소가 노란 점과 빨간 점으로 표시되어 있습니다.

기상관측소 명을 보려면 표시 위로 마우스를 이동하세요.

날씨 관측과 예보를 보려면 클릭하세요.

지도 변경 : 확대하려면 엑스 표시가 있는 녹색 버튼, 축소하려면 빼기 표시가 있는 녹색 버튼, 다음 페이지의 지도를 보려면 녹색 화살표를 클릭하세요.


METAR-TAF: